Liscomb, IA

11:20 PM CDT on July 28, 2014 (GMT -0500)
Marshalltown Municipal (KMIW) Elev 971 ft | 42.11 °N, 92.92 °W | Change Station

Current weather conditions updated 27 minutes ago

Clear
Clear
59 °F
Feels Like 59 °F
N
6
Wind Variable Wind from WNW

Tomorrow is forecast to be Warmer than today.

Today
High -- | Low -- °F
--% Chance of Precip.
Yesterday
High -- | Low -- °F
Precip. -- in
6:01 AM 8:35 PM
Waxing Crescent, 4% visible
Pressure 30.14 in
Visibility 10.0 miles
Clouds Clear
Dew Point 57 °F
Humidity 93%
Rainfall 0.00 in
Snow Depth Not available.
UV 0 out of 12
Pollen 6.40 out of 12
Air Quality Not available.
Flu Activity Not available.
METAR KMIW 290353Z AUTO 29005KT 10SM CLR 15/14 A3015 RMK AO2 SLP207 T01500139

More Conditions Fewer Conditions

Pressure 30.14 in
Visibility 10.0 miles
Clouds Clear
Dew Point 57 °F
Humidity 93%
Rainfall 0.00 in
Snow Depth Not available.
UV 0 out of 12
Pollen 6.40 out of 12
Air Quality Not available.
Flu Activity Not available.
METAR KMIW 290353Z AUTO 29005KT 10SM CLR 15/14 A3015 RMK AO2 SLP207 T01500139

More Conditions Fewer Conditions

10-Day Weather Forecast

Almanac

Astronomy

Jul. 28, 2014 Rise Set
Actual Time 6:01 AM CDT 8:35 PM CDT
Civil Twilight 5:28 AM CDT 9:07 PM CDT
Nautical Twilight 4:48 AM CDT 9:47 PM CDT
Astronomical Twilight 4:03 AM CDT 10:32 PM CDT
Moon 7:46 AM CDT (7/28) 9:13 PM CDT (7/28)
Length of Visible Light 15h 38m
Length of Day
14h 34m
Tomorrow will be 2m 3s shorter.
Waxing Crescent, 4% of the Moon is Illuminated
Jul 29
Waxing Crescent
Aug 3
First Quarter
Aug 10
Full
Aug 17
Last Quarter
Aug 25
New

Today's Extremes

State Highs State Lows

Community

WunderPhotos

Upload Photos

1,738,629 photos uploaded!

Nearby

Snow Depth

Station Depth Elevation
No new snow has been reported.

Earthquake Activity

City Distance Mag. Time & Date
No recent earthquake activity has been reported nearby.
Minimum magnitude displayed is 2.5.

Coastal Water Temperatures

Place Temperature
No Stations Reporting

Nearby Weather Stations

Station Location Temp. Dew Point Humidity Wind Precip. Elev Updated Type
Anderson Farms, Beaman, IA 59.7 °F 57 °F 90% West  at  0.0 mph 0.00 in / hr 1043 ft 11:12 PM CDT Normal
KB0MGH, Gladbrook, IA 61.3 °F 56 °F 81% West  at  0.6 mph 0.00 in / hr 1010 ft 11:20 PM CDT Rapid Fire
Meyer Agri-Air, Wellsburg, IA 62.1 °F 57 °F 82% NW  at  4.0 mph 0.00 in / hr 1093 ft 11:19 PM CDT Normal
MesoWest GARDEN , Garden City, IA 63 °F - - North  at  - 0.00 in / hr 1200 ft 9:45 PM CDT MADIS
MesoWest TAMA1 , Tama, IA 62 °F - - North  at  - 0.00 in / hr 829 ft 10:30 PM CDT MADIS
Jensen Farm, Iowa Falls, IA 58.9 °F 56 °F 92% NNW  at  1.0 mph 0.00 in / hr 1129 ft 11:20 PM CDT Rapid Fire

Show More Stations Show Fewer Stations